Time;durP1;ratioP1;P1;durP2;ratioP2;P2;SDS_P1;SDS_P2;PMS_P1;PMS_P2;Temp;Humidity;BMP_temperature;BMP_pressure;BME280_temperature;BME280_humidity;BME280_pressure;Samples;Min_cycle;Max_cycle;Signal;HPM_P1;HPM_P2
2023/07/13 00:01:49;;;;;;;5.05;4.03;;;;;;;15.64;100.00;100507.53;4881021;29;20060;-82
2023/07/13 00:04:17;;;;;;;5.00;3.67;;;;;;;15.67;100.00;100518.06;4864750;29;20510;-81
2023/07/13 00:06:44;;;;;;;5.88;4.38;;;;;;;15.59;100.00;100517.47;4878861;29;20041;-81
2023/07/13 00:09:13;;;;;;;6.07;3.72;;;;;;;15.58;100.00;100529.06;4871900;29;20298;-81
2023/07/13 00:11:40;;;;;;;5.38;3.88;;;;;;;15.56;100.00;100532.75;4871878;29;20420;-82
2023/07/13 00:14:07;;;;;;;4.15;3.50;;;;;;;15.53;100.00;100531.06;4863697;29;20059;-81
2023/07/13 00:16:36;;;;;;;5.35;3.92;;;;;;;15.58;100.00;100537.06;4880265;29;20048;-81
2023/07/13 00:19:03;;;;;;;5.05;3.60;;;;;;;15.59;100.00;100522.81;4881657;29;20049;-82
2023/07/13 00:21:30;;;;;;;7.10;5.43;;;;;;;15.69;100.00;100523.31;4874369;29;20071;-82
2023/07/13 00:23:57;;;;;;;4.47;3.40;;;;;;;15.64;100.00;100523.53;4881491;29;20041;-81
2023/07/13 00:26:24;;;;;;;4.22;3.75;;;;;;;15.57;100.00;100514.03;4887672;29;20041;-81
2023/07/13 00:28:51;;;;;;;4.40;4.00;;;;;;;15.53;100.00;100519.53;4858064;29;20048;-81
2023/07/13 00:31:18;;;;;;;5.05;3.40;;;;;;;15.49;100.00;100521.47;4882776;29;20102;-81
2023/07/13 00:33:45;;;;;;;4.07;3.65;;;;;;;15.44;100.00;100512.81;4881487;29;20105;-81
2023/07/13 00:36:12;;;;;;;6.22;3.65;;;;;;;15.45;100.00;100510.06;4885320;29;20046;-81
2023/07/13 00:38:39;;;;;;;4.00;3.47;;;;;;;15.43;100.00;100511.09;4862360;29;20053;-81
2023/07/13 00:41:06;;;;;;;5.20;3.60;;;;;;;15.37;100.00;100516.66;4863677;29;20045;-82
2023/07/13 00:43:32;;;;;;;5.68;3.97;;;;;;;15.31;100.00;100515.16;4866568;29;20053;-81
2023/07/13 00:46:33;;;;;;;4.78;3.53;;;;;;;15.29;100.00;100513.47;4892561;29;20041;-82
2023/07/13 00:49:03;;;;;;;4.65;4.15;;;;;;;15.19;100.00;100532.47;4870885;29;20243;-81
2023/07/13 00:51:35;;;;;;;4.60;3.47;;;;;;;15.09;100.00;100528.47;4874097;29;20136;-81
2023/07/13 00:54:05;;;;;;;4.90;3.65;;;;;;;15.07;100.00;100533.00;4903672;29;20136;-82
2023/07/13 00:56:33;;;;;;;7.65;3.97;;;;;;;15.08;100.00;100536.53;4885549;29;20069;-81
2023/07/13 00:59:00;;;;;;;3.53;3.22;;;;;;;15.11;100.00;100531.06;4872982;29;20561;-81
2023/07/13 01:01:27;;;;;;;4.15;3.33;;;;;;;15.07;100.00;100522.34;4883432;29;20052;-82
2023/07/13 01:03:54;;;;;;;4.97;3.15;;;;;;;14.98;100.00;100530.72;4859642;29;20049;-82
2023/07/13 01:06:21;;;;;;;5.25;3.65;;;;;;;15.01;100.00;100519.94;4890498;29;20140;-81
2023/07/13 01:08:48;;;;;;;4.30;3.72;;;;;;;14.97;100.00;100526.31;4881471;29;20564;-81
2023/07/13 01:11:20;;;;;;;4.55;3.55;;;;;;;14.86;100.00;100531.19;4881322;29;20462;-81
2023/07/13 01:13:47;;;;;;;5.03;3.97;;;;;;;14.77;100.00;100532.44;4857314;29;20046;-82
2023/07/13 01:16:40;;;;;;;3.95;3.50;;;;;;;14.77;100.00;100526.25;4860662;29;20049;-82
2023/07/13 01:19:39;;;;;;;5.22;3.72;;;;;;;14.79;100.00;100535.03;4856688;29;20065;-81
2023/07/13 01:22:17;;;;;;;4.82;3.65;;;;;;;14.60;100.00;100540.19;4861474;29;20049;-82
2023/07/13 01:24:46;;;;;;;4.47;3.85;;;;;;;14.60;100.00;100534.88;4855777;29;20041;-82
2023/07/13 01:27:16;;;;;;;6.32;4.30;;;;;;;14.58;100.00;100536.75;4874327;29;20043;-82
2023/07/13 01:29:46;;;;;;;4.97;3.90;;;;;;;14.47;100.00;100544.28;4859716;29;20047;-82
2023/07/13 01:32:21;;;;;;;4.00;3.60;;;;;;;14.42;100.00;100535.56;4858449;29;20054;-81
2023/07/13 01:34:48;;;;;;;5.20;3.65;;;;;;;14.34;100.00;100538.50;4865926;29;20485;-81
2023/07/13 01:37:15;;;;;;;4.50;3.60;;;;;;;14.34;100.00;100541.16;4858927;29;20075;-81
2023/07/13 01:39:41;;;;;;;5.60;3.92;;;;;;;14.26;100.00;100552.09;4873507;29;20144;-81
2023/07/13 01:42:09;;;;;;;4.22;3.33;;;;;;;14.21;100.00;100547.84;4873225;29;20041;-81
2023/07/13 01:44:36;;;;;;;6.93;4.40;;;;;;;14.25;100.00;100549.50;4882345;29;20081;-82
2023/07/13 01:47:03;;;;;;;5.50;4.07;;;;;;;14.18;100.00;100548.84;4859438;29;20045;-81
2023/07/13 01:49:30;;;;;;;6.30;3.92;;;;;;;14.20;100.00;100551.44;4872222;29;20051;-82
2023/07/13 01:51:57;;;;;;;4.22;3.83;;;;;;;14.16;100.00;100555.16;4873629;29;20040;-81
2023/07/13 01:54:24;;;;;;;5.07;3.75;;;;;;;14.10;100.00;100566.84;4872240;29;20080;-81
2023/07/13 01:56:51;;;;;;;4.70;3.85;;;;;;;13.91;100.00;100563.13;4870888;29;20507;-82
2023/07/13 01:59:17;;;;;;;5.53;4.50;;;;;;;13.94;100.00;100566.53;4864674;29;20045;-82
2023/07/13 02:01:44;;;;;;;6.20;4.10;;;;;;;13.89;100.00;100567.66;4868278;29;20059;-81
2023/07/13 02:04:11;;;;;;;6.18;4.43;;;;;;;13.82;100.00;100572.31;4867513;29;20054;-81
2023/07/13 02:06:38;;;;;;;5.28;4.05;;;;;;;13.89;100.00;100573.81;4873059;29;20504;-81
2023/07/13 02:09:04;;;;;;;6.35;4.45;;;;;;;14.03;100.00;100576.84;4874727;29;20068;-82
2023/07/13 02:11:33;;;;;;;6.78;4.45;;;;;;;14.06;100.00;100582.06;4860875;29;20080;-82
2023/07/13 02:14:01;;;;;;;5.30;4.65;;;;;;;13.89;100.00;100578.28;4874494;29;20037;-81
2023/07/13 02:16:29;;;;;;;5.40;4.43;;;;;;;13.92;100.00;100576.34;4846838;29;20127;-81
2023/07/13 02:18:57;;;;;;;5.10;4.30;;;;;;;13.84;100.00;100583.72;4862312;29;20057;-81
2023/07/13 02:21:24;;;;;;;6.38;4.50;;;;;;;13.86;100.00;100584.53;4898956;29;20505;-81
2023/07/13 02:23:50;;;;;;;5.35;4.85;;;;;;;13.88;100.00;100577.41;4862242;29;20081;-81
2023/07/13 02:26:17;;;;;;;5.10;4.40;;;;;;;13.85;100.00;100582.81;4863513;29;20041;-82
2023/07/13 02:28:44;;;;;;;5.45;4.28;;;;;;;13.79;100.00;100588.34;4855539;29;20437;-82
2023/07/13 02:31:13;;;;;;;5.28;4.03;;;;;;;13.77;100.00;100596.34;4863956;29;20072;-81
2023/07/13 02:33:40;;;;;;;4.75;3.88;;;;;;;13.67;100.00;100594.06;4894396;29;20073;-82
2023/07/13 02:36:07;;;;;;;6.60;4.00;;;;;;;13.71;100.00;100596.59;4878696;29;20060;-82
2023/07/13 02:38:36;;;;;;;4.78;4.03;;;;;;;13.70;100.00;100593.94;4876240;29;20252;-81
2023/07/13 02:41:04;;;;;;;6.32;4.53;;;;;;;13.61;100.00;100588.97;4861177;29;20513;-81
2023/07/13 02:43:31;;;;;;;6.25;4.35;;;;;;;13.64;100.00;100592.41;4876829;29;20045;-82
2023/07/13 02:46:03;;;;;;;5.22;4.43;;;;;;;13.58;100.00;100595.25;4890857;29;20073;-83
2023/07/13 02:48:30;;;;;;;6.00;3.88;;;;;;;13.45;100.00;100597.47;4850343;29;20045;-81
2023/07/13 02:50:57;;;;;;;5.13;4.18;;;;;;;13.39;100.00;100604.75;4879474;29;20059;-82
2023/07/13 02:53:24;;;;;;;4.78;4.28;;;;;;;13.33;100.00;100605.81;4876483;29;20501;-83
2023/07/13 02:55:50;;;;;;;6.07;5.05;;;;;;;13.30;100.00;100615.66;4872386;29;20315;-80
2023/07/13 02:58:17;;;;;;;5.70;4.32;;;;;;;13.33;100.00;100607.59;4886637;29;20084;-82
2023/07/13 03:00:47;;;;;;;6.13;4.18;;;;;;;13.37;100.00;100604.81;4877813;29;20041;-80
2023/07/13 03:03:14;;;;;;;5.53;4.50;;;;;;;13.33;100.00;100599.63;4892273;29;20139;-81
2023/07/13 03:05:43;;;;;;;5.90;4.95;;;;;;;13.37;100.00;100594.19;4876630;29;20055;-82
2023/07/13 03:08:10;;;;;;;4.78;3.88;;;;;;;13.38;100.00;100595.94;4858302;29;20049;-81
2023/07/13 03:10:39;;;;;;;6.13;4.32;;;;;;;13.39;100.00;100594.13;4857636;29;20048;-81
2023/07/13 03:13:06;;;;;;;4.38;3.90;;;;;;;13.37;100.00;100588.00;4861563;29;20148;-81
2023/07/13 03:15:32;;;;;;;6.10;4.35;;;;;;;13.39;100.00;100589.69;4873683;29;20781;-82
2023/07/13 03:17:59;;;;;;;5.40;4.53;;;;;;;13.31;100.00;100591.75;4862148;29;20049;-81
2023/07/13 03:20:26;;;;;;;6.50;4.22;;;;;;;13.28;100.00;100589.16;4864890;29;20049;-82
2023/07/13 03:22:53;;;;;;;5.47;4.13;;;;;;;13.26;100.00;100587.50;4873696;29;20140;-81
2023/07/13 03:25:21;;;;;;;5.55;4.15;;;;;;;13.18;100.00;100587.69;4906888;29;20497;-82
2023/07/13 03:27:47;;;;;;;6.75;4.72;;;;;;;13.16;100.00;100584.22;4872991;29;20045;-80
2023/07/13 03:30:14;;;;;;;5.30;4.75;;;;;;;13.12;100.00;100594.09;4857115;29;20056;-81
2023/07/13 03:32:40;;;;;;;4.88;4.38;;;;;;;13.08;100.00;100596.88;4863756;29;20056;-82
2023/07/13 03:35:10;;;;;;;6.93;4.65;;;;;;;13.13;100.00;100608.22;4873164;29;20091;-82
2023/07/13 03:37:42;;;;;;;6.40;4.50;;;;;;;13.14;100.00;100599.34;4874592;29;20061;-81
2023/07/13 03:40:10;;;;;;;7.20;4.55;;;;;;;13.11;100.00;100597.63;4858160;29;20105;-82
2023/07/13 03:42:36;;;;;;;5.25;4.40;;;;;;;13.09;100.00;100612.72;4876631;29;20697;-82
2023/07/13 03:45:04;;;;;;;4.70;4.28;;;;;;;13.10;100.00;100614.47;4882521;29;20655;-83
2023/07/13 03:47:31;;;;;;;4.95;4.22;;;;;;;13.08;100.00;100608.34;4888819;29;20123;-81
2023/07/13 03:49:58;;;;;;;5.60;4.25;;;;;;;13.11;100.00;100605.59;4873656;29;20052;-82
2023/07/13 03:52:25;;;;;;;5.80;4.43;;;;;;;13.08;100.00;100608.34;4885482;29;20291;-83
2023/07/13 03:54:52;;;;;;;6.18;4.40;;;;;;;13.10;100.00;100605.63;4912249;29;20484;-82
2023/07/13 03:57:21;;;;;;;6.55;4.18;;;;;;;13.09;100.00;100610.09;4875285;23;20034;-81
2023/07/13 03:59:48;;;;;;;5.95;4.45;;;;;;;13.06;100.00;100618.16;4869186;23;20120;-81
2023/07/13 04:02:15;;;;;;;5.65;4.32;;;;;;;13.09;100.00;100617.16;4864226;29;20083;-81
2023/07/13 04:04:42;;;;;;;5.97;4.60;;;;;;;13.07;100.00;100616.38;4871439;29;20083;-82
2023/07/13 04:07:08;;;;;;;5.25;4.75;;;;;;;13.11;100.00;100624.16;4862287;29;20053;-81
2023/07/13 04:09:35;;;;;;;6.00;4.50;;;;;;;13.14;100.00;100624.09;4869372;29;20048;-82
2023/07/13 04:12:02;;;;;;;4.70;4.20;;;;;;;13.16;100.00;100626.69;4855501;29;20201;-81
2023/07/13 04:14:29;;;;;;;6.57;4.35;;;;;;;13.21;100.00;100624.78;4863288;29;20045;-81
2023/07/13 04:16:57;;;;;;;6.97;4.82;;;;;;;13.24;100.00;100624.69;4873489;29;20056;-81
2023/07/13 04:19:23;;;;;;;5.88;4.90;;;;;;;13.17;100.00;100626.63;4861574;29;20160;-82
2023/07/13 04:21:50;;;;;;;5.70;4.13;;;;;;;13.27;100.00;100631.66;4869083;29;20124;-81
2023/07/13 04:24:18;;;;;;;4.80;4.32;;;;;;;13.27;100.00;100637.84;4851040;29;20053;-81
2023/07/13 04:26:45;;;;;;;5.68;4.65;;;;;;;13.27;100.00;100627.22;4878654;29;20057;-82
2023/07/13 04:29:12;;;;;;;4.88;4.25;;;;;;;13.39;100.00;100624.19;4863373;29;20049;-80
2023/07/13 04:31:39;;;;;;;5.13;4.63;;;;;;;13.45;100.00;100628.41;4846809;29;20136;-81
2023/07/13 04:34:06;;;;;;;7.03;4.63;;;;;;;13.51;100.00;100631.75;4866494;29;20053;-80
2023/07/13 04:36:35;;;;;;;4.82;4.00;;;;;;;13.53;100.00;100627.25;4848094;29;20045;-81
2023/07/13 04:39:02;;;;;;;5.60;4.40;;;;;;;13.68;100.00;100633.84;4866444;29;20071;-80
2023/07/13 04:41:29;;;;;;;4.93;4.30;;;;;;;13.73;100.00;100636.34;4858536;29;20037;-80
2023/07/13 04:43:56;;;;;;;4.88;4.40;;;;;;;13.91;100.00;100634.84;4849910;29;20041;-82
2023/07/13 04:46:23;;;;;;;4.78;4.07;;;;;;;14.00;100.00;100637.19;4833532;29;20148;-82
2023/07/13 04:48:53;;;;;;;5.60;4.50;;;;;;;14.11;100.00;100648.28;4861067;29;20046;-82
2023/07/13 04:51:20;;;;;;;6.47;4.88;;;;;;;14.24;100.00;100638.09;4856856;29;20063;-82
2023/07/13 04:53:46;;;;;;;5.93;4.85;;;;;;;14.31;100.00;100643.16;4857304;29;20443;-82
2023/07/13 04:56:13;;;;;;;5.97;4.40;;;;;;;14.50;100.00;100643.38;4871164;29;20121;-81
2023/07/13 04:58:40;;;;;;;4.50;4.10;;;;;;;14.57;100.00;100657.31;4848967;29;20041;-84
2023/07/13 05:01:08;;;;;;;5.97;4.57;;;;;;;14.65;100.00;100663.22;4848692;29;20045;-81
2023/07/13 05:03:36;;;;;;;5.35;4.40;;;;;;;14.83;100.00;100659.84;4852105;29;20050;-82
2023/07/13 05:06:05;;;;;;;5.93;4.30;;;;;;;15.20;100.00;100656.63;4855206;29;20719;-80
2023/07/13 05:08:32;;;;;;;8.02;4.85;;;;;;;15.35;100.00;100649.84;4871091;29;20058;-81
2023/07/13 05:11:00;;;;;;;6.22;5.18;;;;;;;15.39;100.00;100651.47;4840240;29;20485;-80
2023/07/13 05:13:27;;;;;;;5.80;4.10;;;;;;;15.46;100.00;100652.91;4861299;29;20045;-82
2023/07/13 05:15:58;;;;;;;5.18;3.97;;;;;;;15.74;100.00;100649.16;4841466;29;20075;-79
2023/07/13 05:18:24;;;;;;;5.25;4.28;;;;;;;15.91;100.00;100653.78;4877246;29;20042;-81
2023/07/13 05:20:57;;;;;;;5.65;3.92;;;;;;;15.95;100.00;100663.38;4853888;29;20358;-80
2023/07/13 05:23:24;;;;;;;7.45;4.53;;;;;;;16.01;100.00;100663.97;4864752;29;20133;-81
2023/07/13 05:25:51;;;;;;;4.75;3.80;;;;;;;16.10;100.00;100672.50;4844729;29;20078;-81
2023/07/13 05:28:18;;;;;;;4.72;4.00;;;;;;;16.19;100.00;100672.09;4867477;29;20059;-82
2023/07/13 05:30:46;;;;;;;4.57;3.88;;;;;;;16.35;100.00;100667.84;4831438;29;20501;-82
2023/07/13 05:33:13;;;;;;;4.20;3.60;;;;;;;16.37;100.00;100671.28;4892007;29;20072;-81
2023/07/13 05:35:40;;;;;;;26.15;6.38;;;;;;;16.53;100.00;100666.16;4879825;29;20136;-80
2023/07/13 05:38:06;;;;;;;5.95;3.60;;;;;;;16.67;100.00;100673.53;4863175;29;20129;-82
2023/07/13 05:40:33;;;;;;;5.40;3.40;;;;;;;16.96;100.00;100669.56;4855862;29;20461;-80
2023/07/13 05:43:00;;;;;;;6.07;2.90;;;;;;;17.88;98.60;100666.84;4854240;29;20465;-80
2023/07/13 05:45:27;;;;;;;3.88;3.03;;;;;;;19.74;82.87;100666.56;4867568;29;20049;-82
2023/07/13 05:47:53;;;;;;;3.95;2.33;;;;;;;22.00;69.36;100659.50;4861335;29;20041;-82
2023/07/13 05:50:21;;;;;;;3.63;1.95;;;;;;;23.77;57.72;100665.69;4839879;29;20045;-83
2023/07/13 05:52:47;;;;;;;4.07;2.03;;;;;;;25.54;51.23;100671.44;4861958;29;20097;-82
2023/07/13 05:55:15;;;;;;;4.22;2.20;;;;;;;26.81;47.28;100676.84;4866639;29;20069;-81
2023/07/13 05:57:42;;;;;;;2.95;2.22;;;;;;;28.03;43.47;100668.47;4850110;29;20421;-82
2023/07/13 06:00:09;;;;;;;2.40;2.05;;;;;;;29.20;40.84;100662.78;4870987;29;20060;-82
2023/07/13 06:02:36;;;;;;;2.55;2.30;;;;;;;29.64;39.95;100661.94;4858194;29;20059;-81
2023/07/13 06:05:03;;;;;;;2.30;2.00;;;;;;;30.51;38.30;100665.75;4885672;29;20077;-80
2023/07/13 06:07:30;;;;;;;2.55;2.20;;;;;;;30.21;38.50;100667.94;4867900;29;20410;-82
2023/07/13 06:09:59;;;;;;;2.63;2.03;;;;;;;29.80;38.83;100671.28;4878779;29;20057;-82
2023/07/13 06:12:27;;;;;;;4.72;2.20;;;;;;;29.29;39.58;100668.16;4864289;29;20046;-81
2023/07/13 06:14:54;;;;;;;2.40;2.20;;;;;;;28.80;40.09;100667.47;4857247;29;20049;-82
2023/07/13 06:17:24;;;;;;;3.80;2.75;;;;;;;27.26;41.92;100673.78;4879941;29;20041;-81
2023/07/13 06:19:52;;;;;;;2.70;2.50;;;;;;;26.64;44.94;100666.63;4865487;29;20044;-80
2023/07/13 06:22:19;;;;;;;2.83;2.30;;;;;;;26.35;46.43;100667.31;4858088;29;20055;-81
2023/07/13 06:24:46;;;;;;;3.70;2.50;;;;;;;26.04;47.07;100662.78;4879294;29;20469;-81
2023/07/13 06:27:13;;;;;;;2.65;2.45;;;;;;;25.50;47.35;100671.84;4860670;29;20462;-82
2023/07/13 06:29:40;;;;;;;4.25;2.88;;;;;;;25.12;49.12;100665.00;4866176;29;20214;-80
2023/07/13 06:32:07;;;;;;;2.88;2.05;;;;;;;24.87;50.12;100663.38;4863700;29;20056;-81
2023/07/13 06:34:34;;;;;;;4.05;2.65;;;;;;;24.38;51.43;100664.59;4866031;29;20109;-79
2023/07/13 06:37:01;;;;;;;2.20;2.00;;;;;;;24.52;53.00;100658.09;4840361;29;20168;-80
2023/07/13 06:39:28;;;;;;;4.50;2.60;;;;;;;24.50;51.71;100662.75;4857637;29;20034;-80
2023/07/13 06:41:54;;;;;;;3.22;2.75;;;;;;;24.41;52.38;100652.69;4856466;29;20042;-80
2023/07/13 06:44:21;;;;;;;6.45;3.13;;;;;;;24.31;53.87;100659.75;4865841;29;20048;-79
2023/07/13 06:46:48;;;;;;;5.63;2.88;;;;;;;24.43;54.06;100656.13;4861591;29;20051;-80
2023/07/13 06:49:15;;;;;;;3.55;2.42;;;;;;;24.49;53.76;100652.94;4858199;29;20429;-80
2023/07/13 06:51:41;;;;;;;4.40;2.22;;;;;;;24.61;54.82;100654.66;4859704;29;20041;-80
2023/07/13 06:54:08;;;;;;;4.85;2.10;;;;;;;24.62;53.50;100661.78;4847780;29;20339;-82
2023/07/13 06:56:35;;;;;;;2.85;2.55;;;;;;;24.63;53.29;100655.38;4870470;29;20068;-80
2023/07/13 06:59:02;;;;;;;4.63;2.42;;;;;;;24.57;53.29;100668.53;4861225;29;20053;-80
2023/07/13 07:01:29;;;;;;;2.50;2.30;;;;;;;24.70;53.96;100662.03;4861066;29;20049;-82
2023/07/13 07:03:56;;;;;;;3.65;2.15;;;;;;;24.81;53.37;100663.03;4841832;29;20176;-83
2023/07/13 07:06:23;;;;;;;3.70;2.70;;;;;;;24.86;52.23;100671.63;4844319;29;20144;-82
2023/07/13 07:08:53;;;;;;;85.07;13.13;;;;;;;24.82;52.98;100659.34;4829696;29;20314;-82
2023/07/13 07:11:24;;;;;;;3.70;2.60;;;;;;;24.85;52.40;100659.94;4867557;29;20045;-81
2023/07/13 07:13:52;;;;;;;2.83;2.10;;;;;;;24.93;52.17;100659.34;4858172;29;20048;-80
2023/07/13 07:16:20;;;;;;;3.30;2.30;;;;;;;25.10;52.38;100660.72;4845303;29;20486;-80
2023/07/13 07:18:47;;;;;;;5.85;2.78;;;;;;;25.21;53.20;100652.56;4868113;29;20110;-80
2023/07/13 07:21:14;;;;;;;7.10;2.80;;;;;;;25.12;51.56;100646.06;4887941;29;20045;-80
2023/07/13 07:23:42;;;;;;;3.83;2.60;;;;;;;25.08;51.92;100650.03;4851934;29;20040;-80
2023/07/13 07:26:10;;;;;;;2.42;2.13;;;;;;;25.19;53.06;100657.25;4842480;29;20051;-80
2023/07/13 07:28:37;;;;;;;2.88;2.20;;;;;;;25.18;51.38;100655.53;4857620;29;20045;-80
2023/07/13 07:31:06;;;;;;;3.75;2.25;;;;;;;25.21;50.68;100655.28;4863351;29;20501;-81
2023/07/13 07:33:36;;;;;;;80.70;14.07;;;;;;;25.10;49.21;100653.47;4844051;29;20045;-80
2023/07/13 07:36:04;;;;;;;3.15;1.98;;;;;;;25.22;51.48;100652.47;4856469;29;20046;-79
2023/07/13 07:38:34;;;;;;;3.00;2.38;;;;;;;25.25;49.54;100636.00;4859169;29;20071;-80
2023/07/13 07:41:04;;;;;;;3.15;1.75;;;;;;;25.39;46.59;100640.28;4830018;29;20473;-80
2023/07/13 07:43:34;;;;;;;2.88;1.70;;;;;;;25.41;45.67;100640.13;4868085;29;20113;-80
2023/07/13 07:46:01;;;;;;;16.05;2.80;;;;;;;25.61;46.42;100635.75;4860009;29;20046;-83
2023/07/13 07:48:29;;;;;;;2.97;1.55;;;;;;;25.76;45.02;100638.06;4845893;29;20037;-82
2023/07/13 07:50:56;;;;;;;1.73;1.52;;;;;;;25.45;43.00;100637.03;4859544;29;20059;-81
2023/07/13 07:53:23;;;;;;;3.45;1.73;;;;;;;25.60;42.69;100637.59;4877210;29;20046;-82
2023/07/13 07:55:51;;;;;;;2.65;1.70;;;;;;;25.63;43.17;100642.75;4864009;29;20436;-81
2023/07/13 07:58:20;;;;;;;2.72;1.38;;;;;;;25.94;44.13;100643.78;4872344;29;20068;-80
2023/07/13 08:00:50;;;;;;;2.58;1.63;;;;;;;25.87;42.27;100641.72;4841738;29;20045;-80
2023/07/13 08:03:20;;;;;;;3.75;1.50;;;;;;;25.80;44.19;100646.78;4865237;29;20667;-79
2023/07/13 08:05:53;;;;;;;3.40;1.80;;;;;;;25.30;44.12;100640.16;4859976;29;20481;-81
2023/07/13 08:08:22;;;;;;;3.13;1.60;;;;;;;25.00;43.86;100644.34;4859136;29;20045;-83
2023/07/13 08:10:49;;;;;;;2.85;1.65;;;;;;;25.33;43.86;100650.72;4855252;29;20154;-81
2023/07/13 08:13:16;;;;;;;2.35;1.55;;;;;;;25.21;41.37;100661.53;4850897;29;20528;-82
2023/07/13 08:15:43;;;;;;;2.45;1.77;;;;;;;24.59;40.95;100656.63;4840478;29;20046;-81
2023/07/13 08:18:10;;;;;;;3.28;1.77;;;;;;;24.78;42.39;100657.84;4841096;29;20057;-80
2023/07/13 08:20:40;;;;;;;1.52;1.23;;;;;;;25.17;41.33;100659.22;4879473;29;20083;-81
2023/07/13 08:23:08;;;;;;;76.28;10.57;;;;;;;25.58;40.60;100665.78;4847907;29;20053;-80
2023/07/13 08:25:35;;;;;;;2.35;1.60;;;;;;;25.58;40.50;100666.66;4856463;29;20125;-80
2023/07/13 08:28:04;;;;;;;4.25;1.45;;;;;;;25.39;40.74;100663.72;4884336;29;20053;-82
2023/07/13 08:30:31;;;;;;;2.45;1.60;;;;;;;25.34;40.49;100657.84;4847917;29;20097;-81
2023/07/13 08:32:58;;;;;;;2.58;1.60;;;;;;;24.94;40.96;100664.63;4866857;29;20136;-82
2023/07/13 08:35:25;;;;;;;3.10;1.73;;;;;;;25.36;42.72;100662.13;4858364;29;20058;-80
2023/07/13 08:38:13;;;;;;;2.38;1.50;;;;;;;25.83;41.15;100653.81;4872176;29;20059;-81
2023/07/13 08:40:40;;;;;;;1.98;1.40;;;;;;;25.99;40.12;100656.94;4873590;29;20043;-80
2023/07/13 08:43:15;;;;;;;51.50;7.35;;;;;;;26.19;40.82;100664.19;4863472;29;20060;-80
2023/07/13 08:45:53;;;;;;;8.32;2.42;;;;;;;26.09;39.30;100665.97;4891561;29;20051;-81
2023/07/13 08:48:36;;;;;;;239.88;35.63;;;;;;;26.24;41.21;100661.97;4882332;29;20058;-80
2023/07/13 08:51:40;;;;;;;1.50;1.40;;;;;;;26.23;38.56;100654.78;4880641;29;20057;-82
2023/07/13 08:54:26;;;;;;;;;;;;;;;26.61;38.37;100656.06;4876940;29;20326;-82
2023/07/13 08:56:55;;;;;;;3.90;1.52;;;;;;;26.38;39.21;100668.91;4861997;29;19940;-81
2023/07/13 08:59:25;;;;;;;3.63;2.08;;;;;;;26.29;39.39;100659.69;4888460;29;20050;-82
2023/07/13 09:02:25;;;;;;;4.10;1.63;;;;;;;25.81;39.90;100667.44;4869505;29;20072;-82
2023/07/13 09:05:14;;;;;;;3.90;1.60;;;;;;;25.70;40.99;100657.50;4855688;29;20057;-80
2023/07/13 09:08:05;;;;;;;2.10;1.58;;;;;;;25.65;40.53;100665.16;4872010;29;20201;-79
2023/07/13 09:10:51;;;;;;;2.40;1.40;;;;;;;26.00;39.95;100647.81;4866908;29;20041;-81
2023/07/13 09:13:37;;;;;;;3.40;1.60;;;;;;;26.11;39.58;100655.88;4856071;29;20041;-80
2023/07/13 09:16:05;;;;;;;3.20;1.60;;;;;;;26.16;41.44;100653.63;4885833;29;20045;-80
2023/07/13 09:18:38;;;;;;;2.55;1.77;;;;;;;26.29;40.20;100653.41;4863436;29;20074;-81
2023/07/13 09:21:10;;;;;;;2.20;1.87;;;;;;;26.55;39.91;100654.75;4838034;29;20215;-80
2023/07/13 09:23:38;;;;;;;4.95;2.28;;;;;;;26.10;41.06;100651.44;4850164;29;20518;-81
2023/07/13 09:26:16;;;;;;;2.42;1.63;;;;;;;25.95;38.97;100652.75;4863953;29;20081;-80
2023/07/13 09:28:45;;;;;;;6.30;2.25;;;;;;;25.36;41.71;100658.56;4873790;29;20052;-80
2023/07/13 09:31:27;;;;;;;3.05;1.67;;;;;;;25.20;40.90;100650.84;4844116;29;20548;-81
2023/07/13 09:33:54;;;;;;;2.40;1.65;;;;;;;25.06;41.73;100652.00;4866423;29;20582;-79
2023/07/13 09:36:26;;;;;;;1.98;1.60;;;;;;;24.94;41.97;100652.94;4860095;29;20539;-81
2023/07/13 09:39:02;;;;;;;3.55;1.73;;;;;;;25.02;41.54;100657.75;4880635;29;20041;-82
2023/07/13 09:41:49;;;;;;;3.83;1.80;;;;;;;24.98;39.82;100654.44;4883608;29;20124;-82
2023/07/13 09:44:18;;;;;;;1.88;1.75;;;;;;;25.22;41.32;100654.28;4838970;29;20101;-79
2023/07/13 09:46:52;;;;;;;73.72;11.40;;;;;;;25.46;39.74;100651.41;4883465;29;20065;-83
2023/07/13 09:49:22;;;;;;;6.65;2.10;;;;;;;25.67;40.63;100655.06;4863169;29;20050;-81
2023/07/13 09:52:01;;;;;;;2.10;1.50;;;;;;;25.53;40.61;100658.91;4841892;29;20129;-81
2023/07/13 09:54:28;;;;;;;2.20;1.73;;;;;;;25.35;39.83;100662.28;4847410;29;20149;-81
2023/07/13 09:56:58;;;;;;;2.05;1.85;;;;;;;25.21;39.75;100658.84;4843668;29;20045;-82
2023/07/13 09:59:30;;;;;;;2.20;1.70;;;;;;;25.10;39.46;100664.28;4847808;29;20056;-81
2023/07/13 10:01:57;;;;;;;2.83;1.60;;;;;;;24.92;40.19;100665.72;4842539;29;20049;-79
2023/07/13 10:04:34;;;;;;;16.20;4.30;;;;;;;24.80;41.38;100656.75;4843064;29;20053;-81
2023/07/13 10:07:06;;;;;;;2.35;1.60;;;;;;;24.78;41.59;100671.38;4876419;29;20139;-80
2023/07/13 10:09:54;;;;;;;25.05;6.47;;;;;;;24.60;41.33;100666.44;4853560;29;20041;-81
2023/07/13 10:12:23;;;;;;;2.97;1.55;;;;;;;24.50;41.39;100673.56;4864210;29;20511;-81
2023/07/13 10:14:54;;;;;;;3.90;1.75;;;;;;;24.52;41.23;100673.44;4866118;29;20042;-81
2023/07/13 10:17:40;;;;;;;3.72;1.70;;;;;;;24.50;42.22;100668.16;4873634;29;20077;-81
2023/07/13 10:20:12;;;;;;;2.63;1.60;;;;;;;24.46;40.87;100672.06;4865816;29;20143;-80
2023/07/13 10:22:46;;;;;;;1.88;1.30;;;;;;;24.40;40.29;100665.31;4829895;29;20835;-79
2023/07/13 10:25:19;;;;;;;3.40;1.75;;;;;;;24.35;40.96;100658.56;4866400;29;20413;-80
2023/07/13 10:27:47;;;;;;;2.28;1.60;;;;;;;24.89;39.97;100656.03;4840616;29;20058;-80
2023/07/13 10:30:20;;;;;;;2.63;1.70;;;;;;;25.33;40.90;100656.13;4846620;29;20096;-82
2023/07/13 10:32:47;;;;;;;2.72;1.70;;;;;;;25.62;39.82;100659.13;4872562;29;20139;-80
2023/07/13 10:35:16;;;;;;;4.68;2.00;;;;;;;25.68;39.99;100664.88;4877850;29;20045;-80
2023/07/13 10:37:57;;;;;;;1.98;1.60;;;;;;;25.88;38.78;100665.06;4845170;29;20093;-80
2023/07/13 10:40:29;;;;;;;2.60;1.98;;;;;;;25.94;37.92;100653.75;4860033;29;20793;-81
2023/07/13 10:42:59;;;;;;;1.90;1.33;;;;;;;25.68;39.78;100653.19;4842864;29;20074;-80
2023/07/13 10:45:34;;;;;;;2.67;1.50;;;;;;;25.27;40.24;100665.59;4864373;29;20060;-80
2023/07/13 10:48:01;;;;;;;2.92;1.52;;;;;;;25.00;40.29;100671.38;4861425;29;20120;-80
2023/07/13 10:50:32;;;;;;;3.10;1.63;;;;;;;24.79;39.20;100678.50;4868468;29;20042;-81
2023/07/13 10:53:20;;;;;;;3.28;2.13;;;;;;;24.57;38.97;100684.75;4839613;29;20046;-81
2023/07/13 10:55:53;;;;;;;2.88;1.63;;;;;;;24.18;39.29;100688.66;4857703;29;20037;-80
2023/07/13 10:58:22;;;;;;;1.50;1.33;;;;;;;24.12;40.36;100682.75;4865496;29;20045;-80
2023/07/13 11:00:51;;;;;;;3.15;1.83;;;;;;;23.93;40.90;100685.13;4859041;29;20041;-79
2023/07/13 11:03:19;;;;;;;2.40;1.63;;;;;;;23.90;41.65;100681.81;4863741;29;20488;-80
2023/07/13 11:05:50;;;;;;;3.42;1.50;;;;;;;23.91;42.76;100676.31;4842484;29;20049;-79
2023/07/13 11:08:31;;;;;;;7.23;2.03;;;;;;;23.74;42.21;100676.72;4845065;29;20062;-80
2023/07/13 11:10:58;;;;;;;3.72;1.95;;;;;;;23.79;41.64;100679.91;4874929;29;20305;-81
2023/07/13 11:13:37;;;;;;;3.08;1.75;;;;;;;23.63;42.40;100688.31;4842621;29;20054;-81
2023/07/13 11:16:36;;;;;;;3.38;2.00;;;;;;;23.52;42.39;100691.75;4858622;29;20049;-80
2023/07/13 11:19:03;;;;;;;3.17;1.50;;;;;;;23.31;44.20;100691.53;4875118;29;20053;-79
2023/07/13 11:21:30;;;;;;;2.92;1.90;;;;;;;23.25;47.08;100704.56;4864522;29;20458;-81
2023/07/13 11:24:15;;;;;;;6.70;2.53;;;;;;;22.99;58.20;100704.63;4851113;29;20125;-83
2023/07/13 11:26:46;;;;;;;3.58;2.20;;;;;;;22.79;68.47;100698.91;4879583;29;20057;-82
2023/07/13 11:29:17;;;;;;;3.45;2.03;;;;;;;22.46;71.15;100697.59;4884428;29;20113;-81
2023/07/13 11:31:56;;;;;;;2.40;2.00;;;;;;;22.07;78.91;100703.84;4858903;29;20135;-82
2023/07/13 11:34:30;;;;;;;2.53;1.90;;;;;;;21.71;78.86;100689.22;4863735;29;20107;-81